createdAt,value
2016-11-18T00:00:36.697Z,1016.72
2016-11-18T00:01:36.688Z,1016.72
2016-11-18T00:02:36.681Z,1016.68
2016-11-18T00:03:36.674Z,1016.66
2016-11-18T00:04:36.665Z,1016.65
2016-11-18T00:05:36.657Z,1016.65
2016-11-18T00:06:36.649Z,1016.64
2016-11-18T00:07:36.641Z,1016.63
2016-11-18T00:08:36.634Z,1016.6
2016-11-18T00:09:36.625Z,1016.61
2016-11-18T00:10:36.620Z,1016.65
2016-11-18T00:11:36.610Z,1016.58
2016-11-18T00:12:36.601Z,1016.6
2016-11-18T00:13:36.594Z,1016.55
2016-11-18T00:14:36.585Z,1016.51
2016-11-18T00:15:36.584Z,1016.5
2016-11-18T00:16:36.570Z,1016.51
2016-11-18T00:17:36.563Z,1016.47
2016-11-18T00:18:36.555Z,1016.49
2016-11-18T00:19:36.548Z,1016.51
2016-11-18T00:20:36.538Z,1016.49
2016-11-18T00:21:36.531Z,1016.46
2016-11-18T00:22:36.525Z,1016.41
2016-11-18T00:23:36.514Z,1016.39
2016-11-18T00:24:36.507Z,1016.33
2016-11-18T00:25:36.499Z,1016.34
2016-11-18T00:26:36.493Z,1016.33
2016-11-18T00:27:36.483Z,1016.34
2016-11-18T00:28:36.476Z,1016.29
2016-11-18T00:29:36.469Z,1016.31
2016-11-18T00:30:36.463Z,1016.28
2016-11-18T00:31:36.452Z,1016.29
2016-11-18T00:32:36.450Z,1016.23
2016-11-18T00:33:36.438Z,1016.21
2016-11-18T00:34:36.429Z,1016.26
2016-11-18T00:35:36.422Z,1016.27
2016-11-18T00:36:36.414Z,1016.3
2016-11-18T00:37:36.405Z,1016.21
2016-11-18T00:38:36.399Z,1016.2
2016-11-18T00:39:36.390Z,1016.18
2016-11-18T00:40:36.382Z,1016.17
2016-11-18T00:41:36.375Z,1016.14
2016-11-18T00:42:36.368Z,1016.13
2016-11-18T00:43:36.360Z,1016.08
2016-11-18T00:44:36.353Z,1016.08
2016-11-18T00:45:36.344Z,1016.11
2016-11-18T00:46:36.336Z,1016.1
2016-11-18T00:47:36.330Z,1016.08
2016-11-18T00:48:36.322Z,1016.08
2016-11-18T00:49:36.326Z,1016.11
2016-11-18T00:50:36.307Z,1016.13
2016-11-18T00:51:36.298Z,1016.05
2016-11-18T00:52:36.291Z,1016.08
2016-11-18T00:53:36.283Z,1016.03
2016-11-18T00:54:36.276Z,1016.03
2016-11-18T00:55:36.268Z,1016.1
2016-11-18T00:56:36.259Z,1016.13
2016-11-18T00:57:36.251Z,1016.16
2016-11-18T00:58:36.245Z,1016.02
2016-11-18T00:59:36.238Z,1016.02
2016-11-18T01:00:36.228Z,1016.04
2016-11-18T01:01:36.221Z,1016.08
2016-11-18T01:02:36.214Z,1016.04
2016-11-18T01:03:36.206Z,1016.14
2016-11-18T01:04:36.197Z,1016.15
2016-11-18T01:05:36.188Z,1016.17
2016-11-18T01:06:36.182Z,1016.08
2016-11-18T01:07:36.175Z,1016.05
2016-11-18T01:08:36.166Z,1016.02
2016-11-18T01:09:36.160Z,1015.95
2016-11-18T01:10:36.151Z,1015.93
2016-11-18T01:11:36.143Z,1015.98
2016-11-18T01:12:36.137Z,1015.96
2016-11-18T01:13:36.130Z,1015.95
2016-11-18T01:14:36.121Z,1015.99
2016-11-18T01:15:36.114Z,1015.96
2016-11-18T01:16:36.106Z,1015.94
2016-11-18T01:17:36.099Z,1015.96
2016-11-18T01:18:36.090Z,1015.94
2016-11-18T01:19:36.083Z,1015.94
2016-11-18T01:20:36.075Z,1015.9
2016-11-18T01:21:36.068Z,1015.87
2016-11-18T01:22:36.060Z,1015.93
2016-11-18T01:23:36.053Z,1015.86
2016-11-18T01:24:36.044Z,1015.84
2016-11-18T01:25:36.036Z,1015.82
2016-11-18T01:26:36.029Z,1015.8
2016-11-18T01:27:36.022Z,1015.83
2016-11-18T01:28:36.014Z,1015.81
2016-11-18T01:29:36.005Z,1015.83
2016-11-18T01:30:36.000Z,1015.82
2016-11-18T01:31:35.992Z,1015.87
2016-11-18T01:32:35.983Z,1015.86
2016-11-18T01:33:35.974Z,1015.89
2016-11-18T01:34:35.967Z,1015.84
2016-11-18T01:35:35.961Z,1015.89
2016-11-18T01:36:35.952Z,1015.86
2016-11-18T01:37:35.944Z,1015.87
2016-11-18T01:38:35.937Z,1015.79
2016-11-18T01:39:35.929Z,1015.74
2016-11-18T01:40:35.921Z,1015.71
2016-11-18T01:41:35.913Z,1015.55
2016-11-18T01:42:35.906Z,1015.6
2016-11-18T01:43:35.898Z,1015.54
2016-11-18T01:44:35.889Z,1015.51
2016-11-18T01:45:35.882Z,1015.51
2016-11-18T01:46:35.874Z,1015.56
2016-11-18T01:47:35.866Z,1015.52
2016-11-18T01:48:35.859Z,1015.45
2016-11-18T01:49:35.852Z,1015.42
2016-11-18T01:50:35.846Z,1015.41
2016-11-18T01:51:35.835Z,1015.43
2016-11-18T01:52:35.833Z,1015.43
2016-11-18T01:53:35.821Z,1015.32
2016-11-18T01:54:35.813Z,1015.35
2016-11-18T01:55:35.804Z,1015.26
2016-11-18T01:56:35.799Z,1015.28
2016-11-18T01:57:35.790Z,1015.26
2016-11-18T01:58:35.782Z,1015.18
2016-11-18T01:59:35.774Z,1015.22
2016-11-18T02:00:35.765Z,1015.2
2016-11-18T02:01:35.759Z,1015.21
2016-11-18T02:02:35.749Z,1015.09
2016-11-18T02:03:35.743Z,1015.12
2016-11-18T02:04:35.734Z,1015.1
2016-11-18T02:05:35.728Z,1015.15
2016-11-18T02:06:35.718Z,1015.11
2016-11-18T02:07:35.711Z,1015.21
2016-11-18T02:08:35.703Z,1015.19
2016-11-18T02:09:35.696Z,1015.19
2016-11-18T02:10:35.688Z,1015.21
2016-11-18T02:11:35.680Z,1015.13
2016-11-18T02:12:35.675Z,1015.15
2016-11-18T02:13:35.665Z,1015.02
2016-11-18T02:14:35.656Z,1015.01
2016-11-18T02:15:35.649Z,1014.99
2016-11-18T02:16:35.641Z,1015
2016-11-18T02:17:35.635Z,1014.95
2016-11-18T02:18:35.627Z,1014.94
2016-11-18T02:19:35.620Z,1014.92
2016-11-18T02:20:35.610Z,1014.92
2016-11-18T02:21:35.604Z,1014.9
2016-11-18T02:22:35.597Z,1014.91
2016-11-18T02:23:35.589Z,1014.85
2016-11-18T02:24:35.580Z,1014.8
2016-11-18T02:25:35.573Z,1014.83
2016-11-18T02:26:35.565Z,1014.79
2016-11-18T02:27:35.560Z,1014.76
2016-11-18T02:28:35.549Z,1014.72
2016-11-18T02:29:35.542Z,1014.65
2016-11-18T02:30:35.535Z,1014.62
2016-11-18T02:31:35.526Z,1014.64
2016-11-18T02:32:35.520Z,1014.62
2016-11-18T02:33:35.510Z,1014.61
2016-11-18T02:34:35.508Z,1014.56
2016-11-18T02:35:35.495Z,1014.56
2016-11-18T02:36:35.510Z,1014.54
2016-11-18T02:37:35.481Z,1014.45
2016-11-18T02:38:35.476Z,1014.47
2016-11-18T02:39:35.466Z,1014.39
2016-11-18T02:40:35.458Z,1014.4
2016-11-18T02:41:35.451Z,1014.35
2016-11-18T02:42:35.441Z,1014.38
2016-11-18T02:43:35.436Z,1014.31
2016-11-18T02:44:35.428Z,1014.32
2016-11-18T02:45:35.420Z,1014.38
2016-11-18T02:46:35.412Z,1014.42
2016-11-18T02:47:35.403Z,1014.45
2016-11-18T02:48:35.397Z,1014.45
2016-11-18T02:49:35.389Z,1014.57
2016-11-18T02:50:35.382Z,1014.56
2016-11-18T02:51:35.376Z,1014.55
2016-11-18T02:52:35.368Z,1014.52
2016-11-18T02:53:35.359Z,1014.47
2016-11-18T02:54:35.353Z,1014.5
2016-11-18T02:55:35.344Z,1014.44
2016-11-18T02:56:35.337Z,1014.33
2016-11-18T02:57:35.329Z,1014.34
2016-11-18T02:58:35.320Z,1014.31
2016-11-18T02:59:35.314Z,1014.19
2016-11-18T03:00:35.306Z,1014.19
2016-11-18T03:01:35.299Z,1014.13
2016-11-18T03:02:35.292Z,1014.08
2016-11-18T03:03:35.285Z,1014.06
2016-11-18T03:04:35.277Z,1013.99
2016-11-18T03:05:35.269Z,1013.98
2016-11-18T03:06:35.263Z,1014.01
2016-11-18T03:07:35.255Z,1014.01
2016-11-18T03:08:35.247Z,1013.95
2016-11-18T03:09:35.240Z,1013.97
2016-11-18T03:10:35.233Z,1014.01
2016-11-18T03:11:35.225Z,1013.97
2016-11-18T03:12:35.217Z,1013.98
2016-11-18T03:13:35.209Z,1013.94
2016-11-18T03:14:35.203Z,1013.95
2016-11-18T03:15:35.194Z,1013.95
2016-11-18T03:16:35.187Z,1013.91
2016-11-18T03:17:35.181Z,1013.82
2016-11-18T03:18:35.173Z,1013.95
2016-11-18T03:19:35.167Z,1013.94
2016-11-18T03:20:35.157Z,1013.94
2016-11-18T03:21:35.150Z,1013.89
2016-11-18T03:22:35.142Z,1013.91
2016-11-18T03:23:35.136Z,1013.91
2016-11-18T03:24:35.128Z,1013.83
2016-11-18T03:25:35.121Z,1013.83
2016-11-18T03:26:35.113Z,1013.81
2016-11-18T03:27:35.106Z,1013.78
2016-11-18T03:28:35.098Z,1013.72
2016-11-18T03:29:35.092Z,1013.73
2016-11-18T03:30:35.084Z,1013.71
2016-11-18T03:31:35.077Z,1013.76
2016-11-18T03:32:35.069Z,1013.73
2016-11-18T03:33:35.062Z,1013.73
2016-11-18T03:34:35.053Z,1013.7
2016-11-18T03:35:35.047Z,1013.67
2016-11-18T03:36:35.039Z,1013.7
2016-11-18T03:37:35.032Z,1013.71
2016-11-18T03:38:35.024Z,1013.7
2016-11-18T03:39:35.017Z,1013.76
2016-11-18T03:40:35.011Z,1013.74
2016-11-18T03:41:35.002Z,1013.71
2016-11-18T03:42:34.994Z,1013.77
2016-11-18T03:43:34.988Z,1013.68
2016-11-18T03:44:34.979Z,1013.66
2016-11-18T03:45:34.973Z,1013.69
2016-11-18T03:46:34.964Z,1013.73
2016-11-18T03:47:34.958Z,1013.76
2016-11-18T03:48:34.951Z,1013.77
2016-11-18T03:49:34.944Z,1013.84
2016-11-18T03:50:34.937Z,1013.76
2016-11-18T03:51:34.929Z,1013.7
2016-11-18T03:52:34.923Z,1013.74
2016-11-18T03:53:34.915Z,1013.73
2016-11-18T03:54:34.907Z,1013.7
2016-11-18T03:55:34.899Z,1013.65
2016-11-18T03:56:34.892Z,1013.65
2016-11-18T03:57:34.886Z,1013.6
2016-11-18T03:58:34.882Z,1013.62
2016-11-18T03:59:34.871Z,1013.53
2016-11-18T04:00:34.862Z,1013.63
2016-11-18T04:01:34.856Z,1013.48
2016-11-18T04:02:34.849Z,1013.6
2016-11-18T04:03:34.841Z,1013.62
2016-11-18T04:04:34.833Z,1013.68
2016-11-18T04:05:34.827Z,1013.71
2016-11-18T04:06:34.820Z,1013.7
2016-11-18T04:07:34.812Z,1013.74
2016-11-18T04:08:34.804Z,1013.67
2016-11-18T04:09:34.797Z,1013.68
2016-11-18T04:10:34.791Z,1013.59
2016-11-18T04:11:34.783Z,1013.52
2016-11-18T04:12:34.781Z,1013.49
2016-11-18T04:13:34.768Z,1013.47
2016-11-18T04:14:34.761Z,1013.42
2016-11-18T04:15:34.753Z,1013.38
2016-11-18T04:16:34.746Z,1013.36
2016-11-18T04:17:34.740Z,1013.29
2016-11-18T04:18:34.732Z,1013.26
2016-11-18T04:19:34.725Z,1013.23
2016-11-18T04:20:34.718Z,1013.22
2016-11-18T04:21:34.711Z,1013.23
2016-11-18T04:22:34.704Z,1013.18
2016-11-18T04:23:34.697Z,1013.25
2016-11-18T04:24:34.688Z,1013.23
2016-11-18T04:25:34.683Z,1013.21
2016-11-18T04:26:34.676Z,1013.24
2016-11-18T04:27:34.668Z,1013.17
2016-11-18T04:28:34.661Z,1013.19
2016-11-18T04:29:34.655Z,1013.14
2016-11-18T04:30:34.646Z,1013.12
2016-11-18T04:31:34.641Z,1013.14
2016-11-18T04:32:34.633Z,1013.17
2016-11-18T04:33:34.626Z,1013.21
2016-11-18T04:34:34.618Z,1013.18
2016-11-18T04:35:34.612Z,1013.16
2016-11-18T04:36:34.603Z,1013.16
2016-11-18T04:37:34.598Z,1013.1
2016-11-18T04:38:34.590Z,1013.09
2016-11-18T04:39:34.583Z,1013.1
2016-11-18T04:40:34.575Z,1013.12
2016-11-18T04:41:34.568Z,1013.07
2016-11-18T04:42:34.562Z,1013.02
2016-11-18T04:43:34.555Z,1013.04
2016-11-18T04:44:34.547Z,1013.02
2016-11-18T04:45:34.541Z,1012.91
2016-11-18T04:46:34.535Z,1012.96
2016-11-18T04:47:34.525Z,1013.03
2016-11-18T04:48:34.518Z,1013.06
2016-11-18T04:49:34.516Z,1013.08
2016-11-18T04:50:34.504Z,1013.02
2016-11-18T04:51:34.499Z,1012.94
2016-11-18T04:52:34.491Z,1012.93
2016-11-18T04:53:34.484Z,1012.81
2016-11-18T04:54:34.476Z,1012.79
2016-11-18T04:55:34.470Z,1012.77
2016-11-18T04:56:34.464Z,1012.82
2016-11-18T04:57:34.455Z,1012.89
2016-11-18T04:58:34.456Z,1012.92
2016-11-18T04:59:34.442Z,1013.01
2016-11-18T05:00:34.436Z,1012.99
2016-11-18T05:01:34.429Z,1013.04
2016-11-18T05:02:34.421Z,1013.05
2016-11-18T05:03:34.415Z,1013.02
2016-11-18T05:04:34.408Z,1013.04
2016-11-18T05:05:34.399Z,1013.05
2016-11-18T05:06:34.393Z,1013.11
2016-11-18T05:07:34.386Z,1013.03
2016-11-18T05:08:34.379Z,1013.11
2016-11-18T05:09:34.371Z,1013.09
2016-11-18T05:10:34.364Z,1013.02
2016-11-18T05:11:34.359Z,1012.97
2016-11-18T05:12:34.350Z,1012.97
2016-11-18T05:13:34.342Z,1012.94
2016-11-18T05:14:34.338Z,1012.92
2016-11-18T05:15:34.329Z,1012.93
2016-11-18T05:16:34.322Z,1012.98
2016-11-18T05:17:34.315Z,1012.98
2016-11-18T05:18:34.309Z,1012.99
2016-11-18T05:19:34.303Z,1012.94
2016-11-18T05:20:34.292Z,1012.95
2016-11-18T05:21:34.288Z,1012.92
2016-11-18T05:22:34.280Z,1012.93
2016-11-18T05:23:34.273Z,1012.85
2016-11-18T05:24:34.266Z,1012.84
2016-11-18T05:25:34.259Z,1012.8
2016-11-18T05:26:34.253Z,1012.79
2016-11-18T05:27:34.246Z,1012.73
2016-11-18T05:28:34.238Z,1012.72
2016-11-18T05:29:34.232Z,1012.71
2016-11-18T05:30:34.225Z,1012.65
2016-11-18T05:31:34.218Z,1012.58
2016-11-18T05:32:34.211Z,1012.62
2016-11-18T05:33:34.205Z,1012.63
2016-11-18T05:34:34.197Z,1012.62
2016-11-18T05:35:34.190Z,1012.59
2016-11-18T05:36:34.183Z,1012.55
2016-11-18T05:37:34.175Z,1012.51
2016-11-18T05:38:34.167Z,1012.5
2016-11-18T05:39:34.163Z,1012.45
2016-11-18T05:40:34.156Z,1012.46
2016-11-18T05:41:34.149Z,1012.44
2016-11-18T05:42:34.142Z,1012.51
2016-11-18T05:43:34.135Z,1012.57
2016-11-18T05:44:34.127Z,1012.54
2016-11-18T05:45:34.120Z,1012.49
2016-11-18T05:46:34.114Z,1012.53
2016-11-18T05:47:34.108Z,1012.54
2016-11-18T05:48:34.100Z,1012.54
2016-11-18T05:49:34.093Z,1012.53
2016-11-18T05:50:34.087Z,1012.54
2016-11-18T05:51:34.080Z,1012.5
2016-11-18T05:52:34.073Z,1012.42
2016-11-18T05:53:34.066Z,1012.34
2016-11-18T05:54:34.058Z,1012.28
2016-11-18T05:55:34.051Z,1012.3
2016-11-18T05:56:34.045Z,1012.31
2016-11-18T05:57:34.039Z,1012.27
2016-11-18T05:58:34.032Z,1012.21
2016-11-18T05:59:40.052Z,1012.29
2016-11-18T06:00:34.012Z,1012.28
2016-11-18T06:01:34.006Z,1012.34
2016-11-18T06:02:34.000Z,1012.37
2016-11-18T06:03:33.990Z,1012.37
2016-11-18T06:04:33.991Z,1012.43
2016-11-18T06:05:53.185Z,1012.43
2016-11-18T06:06:33.974Z,1012.44
2016-11-18T06:07:33.965Z,1012.36
2016-11-18T06:08:33.958Z,1012.37
2016-11-18T06:09:33.952Z,1012.29
2016-11-18T06:10:33.944Z,1012.32
2016-11-18T06:11:33.938Z,1012.31
2016-11-18T06:12:33.931Z,1012.28
2016-11-18T06:13:33.925Z,1012.3
2016-11-18T06:14:33.917Z,1012.32
2016-11-18T06:15:33.910Z,1012.31
2016-11-18T06:16:33.907Z,1012.3
2016-11-18T06:17:33.901Z,1012.29
2016-11-18T06:18:33.893Z,1012.1
2016-11-18T06:19:33.890Z,1012.14
2016-11-18T06:20:33.879Z,1012.11
2016-11-18T06:21:33.873Z,1012.11
2016-11-18T06:22:33.865Z,1012.01
2016-11-18T06:23:33.859Z,1012.03
2016-11-18T06:24:33.853Z,1012.08
2016-11-18T06:25:33.846Z,1012.08
2016-11-18T06:26:33.838Z,1012.09
2016-11-18T06:27:33.831Z,1011.99
2016-11-18T06:28:33.825Z,1012
2016-11-18T06:29:33.818Z,1012.02
2016-11-18T06:30:33.810Z,1012.06
2016-11-18T06:31:33.805Z,1012.12
2016-11-18T06:32:33.797Z,1012.09
2016-11-18T06:33:33.790Z,1012.07
2016-11-18T06:34:33.784Z,1012.01
2016-11-18T06:35:33.778Z,1012.07
2016-11-18T06:36:33.768Z,1012
2016-11-18T06:37:33.763Z,1012.04
2016-11-18T06:38:33.755Z,1012.07
2016-11-18T06:39:33.749Z,1012.08
2016-11-18T06:40:33.742Z,1012.08
2016-11-18T06:41:33.736Z,1012.13
2016-11-18T06:42:33.728Z,1012.1
2016-11-18T06:43:33.721Z,1012.1
2016-11-18T06:44:33.713Z,1012.11
2016-11-18T06:45:33.708Z,1012.17
2016-11-18T06:46:33.702Z,1012.16
2016-11-18T06:47:33.694Z,1012.21
2016-11-18T06:48:33.687Z,1012.2
2016-11-18T06:49:33.681Z,1012.17
2016-11-18T06:50:33.674Z,1012.07
2016-11-18T06:51:33.666Z,1012.08
2016-11-18T06:52:33.659Z,1012.04
2016-11-18T06:53:33.653Z,1011.97
2016-11-18T06:54:33.646Z,1012.02
2016-11-18T06:55:33.638Z,1012.05
2016-11-18T06:56:33.633Z,1012.09
2016-11-18T06:57:33.627Z,1012.02
2016-11-18T06:58:33.617Z,1012.15
2016-11-18T06:59:33.612Z,1012.19
2016-11-18T07:00:33.605Z,1012.12
2016-11-18T07:01:33.598Z,1012.17
2016-11-18T07:02:33.592Z,1012.19
2016-11-18T07:03:33.586Z,1012.15
2016-11-18T07:04:33.578Z,1012.18
2016-11-18T07:05:33.572Z,1012.15
2016-11-18T07:06:33.564Z,1012.1
2016-11-18T07:07:33.557Z,1012.08
2016-11-18T07:08:33.552Z,1012.02
2016-11-18T07:09:33.543Z,1012.01
2016-11-18T07:10:33.536Z,1012.04
2016-11-18T07:11:33.530Z,1011.95
2016-11-18T07:12:33.523Z,1011.97
2016-11-18T07:13:33.516Z,1011.84
2016-11-18T07:14:33.509Z,1011.84
2016-11-18T07:15:33.506Z,1011.74
2016-11-18T07:16:33.496Z,1011.73
2016-11-18T07:17:33.489Z,1011.75
2016-11-18T07:18:33.482Z,1011.7
2016-11-18T07:19:33.476Z,1011.63
2016-11-18T07:20:33.468Z,1011.6
2016-11-18T07:21:33.462Z,1011.58
2016-11-18T07:22:33.455Z,1011.59
2016-11-18T07:23:33.447Z,1011.5
2016-11-18T07:24:33.443Z,1011.53
2016-11-18T07:25:33.437Z,1011.49
2016-11-18T07:26:33.430Z,1011.49
2016-11-18T07:27:33.422Z,1011.44
2016-11-18T07:28:33.415Z,1011.44
2016-11-18T07:29:33.410Z,1011.39
2016-11-18T07:30:33.403Z,1011.38
2016-11-18T07:31:33.402Z,1011.3
2016-11-18T07:32:33.391Z,1011.33
2016-11-18T07:33:33.384Z,1011.29
2016-11-18T07:34:33.376Z,1011.25
2016-11-18T07:35:33.370Z,1011.25
2016-11-18T07:36:33.363Z,1011.2
2016-11-18T07:37:33.358Z,1011.21
2016-11-18T07:38:33.350Z,1011.19
2016-11-18T07:39:33.343Z,1011.18
2016-11-18T07:40:33.337Z,1011.22
2016-11-18T07:41:33.332Z,1011.22
2016-11-18T07:42:33.326Z,1011.23
2016-11-18T07:43:33.319Z,1011.17
2016-11-18T07:44:33.312Z,1011.13
2016-11-18T07:45:33.305Z,1011.11
2016-11-18T07:46:33.298Z,1011.12
2016-11-18T07:47:33.292Z,1011.19
2016-11-18T07:48:33.288Z,1011.2
2016-11-18T07:49:33.280Z,1011.19
2016-11-18T07:50:33.274Z,1011.19
2016-11-18T07:51:33.268Z,1011.11
2016-11-18T07:52:33.262Z,1011.08
2016-11-18T07:53:33.255Z,1011.08
2016-11-18T07:54:33.248Z,1011.07
2016-11-18T07:55:33.242Z,1010.94
2016-11-18T07:56:33.234Z,1010.92
2016-11-18T07:57:33.229Z,1010.89
2016-11-18T07:58:33.222Z,1010.81
2016-11-18T07:59:33.215Z,1010.83
2016-11-18T08:00:33.210Z,1010.87
2016-11-18T08:01:33.204Z,1010.79
2016-11-18T08:02:33.198Z,1010.76
2016-11-18T08:03:33.193Z,1010.75
2016-11-18T08:04:33.184Z,1010.69
2016-11-18T08:05:33.180Z,1010.66
2016-11-18T08:06:33.171Z,1010.68
2016-11-18T08:07:33.167Z,1010.73
2016-11-18T08:08:33.167Z,1010.76
2016-11-18T08:09:33.154Z,1010.78
2016-11-18T08:10:33.147Z,1010.79
2016-11-18T08:11:33.140Z,1010.79
2016-11-18T08:12:33.135Z,1010.77
2016-11-18T08:13:33.130Z,1010.71
2016-11-18T08:14:33.125Z,1010.73
2016-11-18T08:15:33.117Z,1010.65
2016-11-18T08:16:33.110Z,1010.71
2016-11-18T08:17:33.105Z,1010.61
2016-11-18T08:18:33.098Z,1010.68
2016-11-18T08:19:33.093Z,1010.69
2016-11-18T08:20:33.086Z,1010.73
2016-11-18T08:21:33.081Z,1010.65
2016-11-18T08:22:33.073Z,1010.64
2016-11-18T08:23:33.068Z,1010.62
2016-11-18T08:24:33.061Z,1010.63
2016-11-18T08:25:33.060Z,1010.67
2016-11-18T08:26:33.050Z,1010.59
2016-11-18T08:27:33.044Z,1010.55
2016-11-18T08:28:33.039Z,1010.49
2016-11-18T08:29:33.031Z,1010.44
2016-11-18T08:30:33.027Z,1010.34
2016-11-18T08:31:33.021Z,1010.22
2016-11-18T08:32:33.014Z,1010.15
2016-11-18T08:33:33.009Z,1010.06
2016-11-18T08:34:33.004Z,1009.99
2016-11-18T08:35:32.997Z,1009.96
2016-11-18T08:36:32.991Z,1009.87
2016-11-18T08:37:32.986Z,1009.81
2016-11-18T08:38:32.984Z,1009.77
2016-11-18T08:39:32.976Z,1009.73
2016-11-18T08:40:32.968Z,1009.73
2016-11-18T08:41:32.963Z,1009.67
2016-11-18T08:42:32.958Z,1009.67
2016-11-18T08:43:32.953Z,1009.69
2016-11-18T08:44:32.947Z,1009.63
2016-11-18T08:45:32.943Z,1009.57
2016-11-18T08:46:32.939Z,1009.51
2016-11-18T08:47:32.931Z,1009.51
2016-11-18T08:48:32.930Z,1009.51
2016-11-18T08:49:32.922Z,1009.55
2016-11-18T08:50:32.917Z,1009.53
2016-11-18T08:51:32.912Z,1009.56
2016-11-18T08:52:32.907Z,1009.65
2016-11-18T08:53:32.903Z,1009.64
2016-11-18T08:54:32.898Z,1009.6
2016-11-18T08:55:32.891Z,1009.57
2016-11-18T08:56:32.889Z,1009.57
2016-11-18T08:57:32.882Z,1009.6
2016-11-18T08:58:32.878Z,1009.57
2016-11-18T08:59:32.872Z,1009.51
2016-11-18T09:00:32.868Z,1009.42
2016-11-18T09:01:32.864Z,1009.34
2016-11-18T09:02:32.859Z,1009.34
2016-11-18T09:03:32.855Z,1009.35
2016-11-18T09:04:32.851Z,1009.23
2016-11-18T09:05:32.846Z,1009.16
2016-11-18T09:06:32.840Z,1009.17
2016-11-18T09:07:32.838Z,1009.22
2016-11-18T09:08:32.833Z,1009.26
2016-11-18T09:09:32.828Z,1009.16
2016-11-18T09:10:32.823Z,1009.13
2016-11-18T09:11:32.819Z,1008.96
2016-11-18T09:12:32.814Z,1009.01
2016-11-18T09:13:32.812Z,1009.03
2016-11-18T09:14:32.805Z,1009.17
2016-11-18T09:15:32.803Z,1009.09
2016-11-18T09:16:32.797Z,1009.07
2016-11-18T09:17:32.791Z,1008.95
2016-11-18T09:18:32.787Z,1008.92
2016-11-18T09:19:32.785Z,1008.92
2016-11-18T09:20:32.780Z,1008.88
2016-11-18T09:21:32.775Z,1008.92
2016-11-18T09:22:32.773Z,1008.87
2016-11-18T09:23:32.767Z,1008.78
2016-11-18T09:24:32.762Z,1008.72
2016-11-18T09:25:32.758Z,1008.7
2016-11-18T09:26:32.755Z,1008.64
2016-11-18T09:27:32.751Z,1008.66
2016-11-18T09:28:32.748Z,1008.67
2016-11-18T09:29:32.744Z,1008.64
2016-11-18T09:30:32.739Z,1008.68
2016-11-18T09:31:32.736Z,1008.71
2016-11-18T09:32:32.733Z,1008.82
2016-11-18T09:33:32.728Z,1008.88
2016-11-18T09:34:32.724Z,1008.89
2016-11-18T09:35:32.721Z,1008.9
2016-11-18T09:36:32.717Z,1009.15
2016-11-18T09:37:32.712Z,1009.03
2016-11-18T09:38:32.709Z,1008.83
2016-11-18T09:39:32.708Z,1008.85
2016-11-18T09:40:32.701Z,1008.81
2016-11-18T09:41:32.697Z,1008.74
2016-11-18T09:42:32.693Z,1008.76
2016-11-18T09:43:32.690Z,1008.96
2016-11-18T09:44:32.687Z,1008.87
2016-11-18T09:45:32.683Z,1008.86
2016-11-18T09:46:32.678Z,1008.91
2016-11-18T09:47:32.674Z,1008.91
2016-11-18T09:48:32.670Z,1008.96
2016-11-18T09:49:32.666Z,1008.98
2016-11-18T09:50:32.663Z,1008.85
2016-11-18T09:51:32.658Z,1008.87
2016-11-18T09:52:32.656Z,1008.81
2016-11-18T09:53:32.650Z,1008.86
2016-11-18T09:54:32.647Z,1008.82
2016-11-18T09:55:32.643Z,1008.67
2016-11-18T09:56:32.640Z,1008.61
2016-11-18T09:57:32.636Z,1008.57
2016-11-18T09:58:32.632Z,1008.47
2016-11-18T09:59:32.628Z,1008.31
2016-11-18T10:00:32.624Z,1008.16
2016-11-18T10:01:32.620Z,1008.15
2016-11-18T10:02:32.617Z,1008.23
2016-11-18T10:03:32.614Z,1008.18
2016-11-18T10:04:32.609Z,1008.05
2016-11-18T10:05:32.606Z,1008.1
2016-11-18T10:06:32.604Z,1008.18
2016-11-18T10:07:32.598Z,1008.16
2016-11-18T10:08:32.596Z,1008.3
2016-11-18T10:09:32.595Z,1008.47
2016-11-18T10:10:32.590Z,1008.41
2016-11-18T10:11:32.586Z,1008.35
2016-11-18T10:12:32.582Z,1008.32
2016-11-18T10:13:32.580Z,1008.3
2016-11-18T10:14:32.576Z,1008.4
2016-11-18T10:15:32.574Z,1008.17
2016-11-18T10:16:32.569Z,1008.29
2016-11-18T10:17:32.566Z,1008.41
2016-11-18T10:18:32.564Z,1008.33
2016-11-18T10:19:32.558Z,1008.3
2016-11-18T10:20:32.555Z,1008.39
2016-11-18T10:21:32.551Z,1008.4
2016-11-18T10:22:32.548Z,1008.39
2016-11-18T10:23:32.545Z,1008.54
2016-11-18T10:24:32.541Z,1008.42
2016-11-18T10:25:32.536Z,1008.4
2016-11-18T10:26:32.533Z,1008.49
2016-11-18T10:27:32.529Z,1008.36
2016-11-18T10:28:32.525Z,1008.33
2016-11-18T10:29:32.523Z,1008.41
2016-11-18T10:30:32.519Z,1008.52
2016-11-18T10:31:32.515Z,1008.93
2016-11-18T10:32:32.510Z,1009.56
2016-11-18T10:33:32.506Z,1010.14
2016-11-18T10:34:32.502Z,1010.42
2016-11-18T10:35:32.500Z,1010.56
2016-11-18T10:36:32.496Z,1010.85
2016-11-18T10:37:32.490Z,1011.05
2016-11-18T10:38:32.492Z,1011.3
2016-11-18T10:39:32.484Z,1011.74
2016-11-18T10:40:32.480Z,1011.82
2016-11-18T10:41:32.475Z,1012.2
2016-11-18T10:42:32.472Z,1012.4
2016-11-18T10:43:32.468Z,1012.43
2016-11-18T10:44:32.461Z,1012.49
2016-11-18T10:45:32.457Z,1012.71
2016-11-18T10:46:32.455Z,1012.81
2016-11-18T10:47:32.448Z,1012.94
2016-11-18T10:48:32.443Z,1013.03
2016-11-18T10:49:32.438Z,1013.13
2016-11-18T10:50:32.432Z,1013.19
2016-11-18T10:51:32.434Z,1013.24
2016-11-18T10:52:32.422Z,1013.24
2016-11-18T10:53:32.417Z,1013.33
2016-11-18T10:54:32.412Z,1013.34
2016-11-18T10:55:32.405Z,1013.35
2016-11-18T10:56:32.399Z,1013.4
2016-11-18T10:57:32.396Z,1013.43
2016-11-18T10:58:32.388Z,1013.44
2016-11-18T10:59:32.381Z,1013.43
2016-11-18T11:00:32.374Z,1013.46
2016-11-18T11:01:32.369Z,1013.54
2016-11-18T11:02:32.362Z,1013.52
2016-11-18T11:03:32.356Z,1013.56
2016-11-18T11:04:32.350Z,1013.52
2016-11-18T11:05:32.342Z,1013.52
2016-11-18T11:06:32.336Z,1013.46
2016-11-18T11:07:32.328Z,1013.37
2016-11-18T11:08:32.324Z,1013.3
2016-11-18T11:09:32.316Z,1013.27
2016-11-18T11:10:32.310Z,1013.26
2016-11-18T11:11:32.302Z,1013.32
2016-11-18T11:12:32.298Z,1013.33
2016-11-18T11:13:32.290Z,1013.37
2016-11-18T11:14:32.282Z,1013.39
2016-11-18T11:15:32.275Z,1013.45
2016-11-18T11:16:32.268Z,1013.45
2016-11-18T11:17:32.261Z,1013.52
2016-11-18T11:18:32.254Z,1013.53
2016-11-18T11:19:32.247Z,1013.43
2016-11-18T11:20:32.240Z,1013.37
2016-11-18T11:21:32.232Z,1013.27
2016-11-18T11:22:32.225Z,1013.18
2016-11-18T11:23:32.220Z,1013.06
2016-11-18T11:24:32.213Z,1013.01
2016-11-18T11:25:32.204Z,1012.92
2016-11-18T11:26:32.199Z,1012.8
2016-11-18T11:27:32.192Z,1012.72
2016-11-18T11:28:32.184Z,1012.63
2016-11-18T11:29:32.178Z,1012.53
2016-11-18T11:30:32.172Z,1012.42
2016-11-18T11:31:32.163Z,1012.34
2016-11-18T11:32:32.156Z,1012.37
2016-11-18T11:33:32.150Z,1012.5
2016-11-18T11:34:32.146Z,1012.67
2016-11-18T11:35:32.137Z,1012.77
2016-11-18T11:36:32.129Z,1012.93
2016-11-18T11:37:32.124Z,1013.04
2016-11-18T11:38:32.117Z,1013.12
2016-11-18T11:39:32.109Z,1013.12
2016-11-18T11:40:32.103Z,1013.14
2016-11-18T11:41:32.097Z,1013.19
2016-11-18T11:42:32.092Z,1013.27
2016-11-18T11:43:32.083Z,1013.28
2016-11-18T11:44:32.077Z,1013.18
2016-11-18T11:45:32.070Z,1013.18
2016-11-18T11:46:32.063Z,1013.29
2016-11-18T11:47:32.057Z,1013.33
2016-11-18T11:48:32.050Z,1013.35
2016-11-18T11:49:32.044Z,1013.27
2016-11-18T11:50:32.036Z,1013.2
2016-11-18T11:51:32.030Z,1013.27
2016-11-18T11:52:32.025Z,1013.34
2016-11-18T11:53:32.017Z,1013.39
2016-11-18T11:54:32.008Z,1013.46
2016-11-18T11:55:32.002Z,1013.42
2016-11-18T11:56:31.996Z,1013.36
2016-11-18T11:57:31.987Z,1013.33
2016-11-18T11:58:31.980Z,1013.24
2016-11-18T11:59:31.973Z,1013.19
2016-11-18T12:00:31.966Z,1013.24
2016-11-18T12:01:31.960Z,1013.59
2016-11-18T12:02:31.954Z,1013.88
2016-11-18T12:03:31.946Z,1013.87
2016-11-18T12:04:31.938Z,1013.89
2016-11-18T12:05:31.930Z,1013.98
2016-11-18T12:06:31.924Z,1013.94
2016-11-18T12:07:31.917Z,1013.97